createdAt,value
2022-12-08T00:02:25.782Z,2.62
2022-12-08T00:05:10.761Z,2.65
2022-12-08T00:07:56.695Z,2.50
2022-12-08T00:10:47.948Z,2.56
2022-12-08T00:13:09.684Z,2.68
2022-12-08T00:15:36.002Z,2.72
2022-12-08T00:18:02.487Z,2.81
2022-12-08T00:20:28.645Z,2.67
2022-12-08T00:22:55.086Z,2.81
2022-12-08T00:25:21.169Z,2.86
2022-12-08T00:27:47.573Z,2.95
2022-12-08T00:30:13.803Z,3.11
2022-12-08T00:32:40.250Z,3.00
2022-12-08T00:35:06.818Z,3.03
2022-12-08T00:37:33.413Z,3.00
2022-12-08T00:39:59.516Z,2.93
2022-12-08T00:42:26.143Z,3.12
2022-12-08T00:44:52.377Z,3.00
2022-12-08T00:47:23.383Z,2.93
2022-12-08T00:49:51.315Z,3.04
2022-12-08T00:52:17.665Z,3.08
2022-12-08T00:54:43.805Z,2.88
2022-12-08T00:57:10.816Z,2.89
2022-12-08T00:59:36.956Z,2.73
2022-12-08T01:02:03.436Z,2.74
2022-12-08T01:04:29.750Z,2.80
2022-12-08T01:06:56.122Z,2.60
2022-12-08T01:09:22.424Z,2.49
2022-12-08T01:11:48.856Z,2.59
2022-12-08T01:14:15.113Z,2.70
2022-12-08T01:16:41.938Z,2.64
2022-12-08T01:19:11.049Z,2.61
2022-12-08T01:21:37.459Z,2.57
2022-12-08T01:24:03.786Z,2.66
2022-12-08T01:26:30.161Z,2.79
2022-12-08T01:28:56.321Z,2.79
2022-12-08T01:31:23.024Z,2.87
2022-12-08T01:33:49.675Z,2.94
2022-12-08T01:36:22.328Z,2.91
2022-12-08T01:38:48.729Z,2.97
2022-12-08T01:41:17.158Z,2.94
2022-12-08T01:43:55.053Z,2.78
2022-12-08T01:46:21.665Z,2.94
2022-12-08T01:48:49.631Z,2.76
2022-12-08T01:51:16.004Z,2.61
2022-12-08T01:53:42.917Z,2.56
2022-12-08T01:56:14.940Z,2.66
2022-12-08T01:58:47.158Z,2.75
2022-12-08T02:01:13.610Z,2.81
2022-12-08T02:03:50.253Z,2.81
2022-12-08T02:06:18.863Z,2.85
2022-12-08T02:08:46.979Z,2.91
2022-12-08T02:11:13.291Z,2.79
2022-12-08T02:13:42.490Z,2.82
2022-12-08T02:16:36.391Z,2.90
2022-12-08T02:19:32.771Z,2.78
2022-12-08T02:22:25.142Z,2.78
2022-12-08T02:24:57.517Z,2.72
2022-12-08T02:27:54.072Z,2.77
2022-12-08T02:30:29.677Z,2.58
2022-12-08T02:33:16.926Z,2.63
2022-12-08T02:36:04.069Z,2.52
2022-12-08T02:38:44.834Z,2.45
2022-12-08T02:41:27.232Z,2.24
2022-12-08T02:44:36.674Z,2.28
2022-12-08T02:47:11.856Z,2.18
2022-12-08T02:49:38.269Z,2.36
2022-12-08T02:52:24.560Z,2.35
2022-12-08T02:54:58.614Z,2.23
2022-12-08T02:57:28.073Z,2.10
2022-12-08T03:00:13.277Z,2.04
2022-12-08T03:03:13.544Z,2.04
2022-12-08T03:06:10.580Z,1.92
2022-12-08T03:08:53.877Z,1.87
2022-12-08T03:11:40.245Z,1.91
2022-12-08T03:14:10.286Z,1.88
2022-12-08T03:16:42.042Z,1.93
2022-12-08T03:19:11.533Z,1.96
2022-12-08T03:21:39.965Z,2.04
2022-12-08T03:24:09.372Z,2.08
2022-12-08T03:26:56.937Z,2.24
2022-12-08T03:29:23.917Z,2.38
2022-12-08T03:31:55.573Z,2.34
2022-12-08T03:34:26.345Z,2.40
2022-12-08T03:36:52.632Z,2.24
2022-12-08T03:39:19.327Z,2.17
2022-12-08T03:41:46.552Z,2.15
2022-12-08T03:44:15.715Z,2.13
2022-12-08T03:46:42.056Z,2.14
2022-12-08T03:49:08.517Z,2.60
2022-12-08T03:51:34.761Z,2.76
2022-12-08T03:54:01.426Z,2.97
2022-12-08T03:56:32.340Z,2.57
2022-12-08T03:58:58.842Z,2.67
2022-12-08T04:01:25.561Z,3.04
2022-12-08T04:03:52.702Z,2.73
2022-12-08T04:06:19.688Z,2.60
2022-12-08T04:08:46.869Z,2.54
2022-12-08T04:11:13.286Z,2.58
2022-12-08T04:13:41.595Z,3.32
2022-12-08T04:16:13.987Z,3.21
2022-12-08T04:18:40.493Z,3.47
2022-12-08T04:21:07.023Z,3.52
2022-12-08T04:23:33.538Z,3.81
2022-12-08T04:25:59.664Z,3.93
2022-12-08T04:28:28.662Z,4.03
2022-12-08T04:30:55.093Z,4.15
2022-12-08T04:33:21.710Z,4.13
2022-12-08T04:35:47.761Z,4.21
2022-12-08T04:38:14.120Z,4.35
2022-12-08T04:40:40.504Z,4.30
2022-12-08T04:43:07.104Z,4.31
2022-12-08T04:45:33.578Z,4.01
2022-12-08T04:48:01.050Z,3.90
2022-12-08T04:50:27.903Z,3.60
2022-12-08T04:52:54.322Z,3.82
2022-12-08T04:55:20.439Z,3.90
2022-12-08T04:57:46.863Z,3.97
2022-12-08T05:00:13.579Z,4.44
2022-12-08T05:02:40.142Z,4.30
2022-12-08T05:05:06.847Z,3.90
2022-12-08T05:07:33.219Z,4.08
2022-12-08T05:09:59.290Z,4.33
2022-12-08T05:12:25.728Z,4.56
2022-12-08T05:14:51.847Z,4.66
2022-12-08T05:17:18.440Z,4.55
2022-12-08T05:19:44.682Z,4.62
2022-12-08T05:22:11.010Z,4.75
2022-12-08T05:24:41.302Z,4.38
2022-12-08T05:27:10.771Z,4.47
2022-12-08T05:29:36.930Z,4.61
2022-12-08T05:32:03.505Z,4.55
2022-12-08T05:34:29.667Z,4.67
2022-12-08T05:36:56.142Z,4.41
2022-12-08T05:39:22.488Z,4.27
2022-12-08T05:41:49.027Z,4.73
2022-12-08T05:44:15.351Z,4.69
2022-12-08T05:46:41.953Z,4.73
2022-12-08T05:49:08.246Z,4.55
2022-12-08T05:51:34.712Z,4.37
2022-12-08T05:54:00.952Z,4.49
2022-12-08T05:56:27.364Z,4.43
2022-12-08T05:58:53.560Z,4.19
2022-12-08T06:01:26.761Z,4.31
2022-12-08T06:03:54.153Z,4.23
2022-12-08T06:06:21.259Z,4.10
2022-12-08T06:08:48.384Z,4.12
2022-12-08T06:11:30.158Z,4.14
2022-12-08T06:13:57.229Z,3.97
2022-12-08T06:16:25.474Z,3.92
2022-12-08T06:18:51.875Z,3.95
2022-12-08T06:21:19.010Z,4.10
2022-12-08T06:23:50.830Z,4.23
2022-12-08T06:26:17.781Z,4.29
2022-12-08T06:28:44.284Z,4.35
2022-12-08T06:31:15.369Z,4.05
2022-12-08T06:33:42.286Z,4.57
2022-12-08T06:36:11.396Z,4.46
2022-12-08T06:38:41.821Z,4.56
2022-12-08T06:41:11.306Z,4.58
2022-12-08T06:43:38.149Z,4.84
2022-12-08T06:46:07.175Z,4.84
2022-12-08T06:48:33.635Z,4.79
2022-12-08T06:51:14.685Z,4.68
2022-12-08T06:53:41.792Z,4.81
2022-12-08T06:56:08.671Z,4.76
2022-12-08T06:58:35.138Z,4.70
2022-12-08T07:01:11.874Z,4.92
2022-12-08T07:03:39.294Z,4.96
2022-12-08T07:06:06.269Z,4.91
2022-12-08T07:08:33.619Z,4.94
2022-12-08T07:11:05.989Z,4.95
2022-12-08T07:13:32.073Z,5.06
2022-12-08T07:15:58.656Z,4.84
2022-12-08T07:18:24.748Z,4.96
2022-12-08T07:20:51.162Z,4.98
2022-12-08T07:23:17.257Z,4.93
2022-12-08T07:25:43.688Z,4.97
2022-12-08T07:28:11.492Z,5.12
2022-12-08T07:30:39.782Z,5.02
2022-12-08T07:33:06.096Z,4.89
2022-12-08T07:35:34.846Z,4.88
2022-12-08T07:38:03.191Z,4.81
2022-12-08T07:40:29.711Z,4.74
2022-12-08T07:42:56.117Z,4.81
2022-12-08T07:45:25.764Z,4.89
2022-12-08T07:47:57.343Z,4.89
2022-12-08T07:50:26.949Z,4.85
2022-12-08T07:52:53.229Z,4.77
2022-12-08T07:55:19.658Z,4.69
2022-12-08T07:57:45.890Z,4.59
2022-12-08T08:00:13.339Z,4.84
2022-12-08T08:02:41.541Z,4.86
2022-12-08T08:05:09.039Z,4.89
2022-12-08T08:07:36.521Z,5.00
2022-12-08T08:10:03.674Z,5.01
2022-12-08T08:12:31.735Z,4.81
2022-12-08T08:15:09.504Z,4.93
2022-12-08T08:17:37.124Z,4.86
2022-12-08T08:20:07.918Z,5.02
2022-12-08T08:22:35.426Z,4.86
2022-12-08T08:25:02.298Z,5.02
2022-12-08T08:27:28.440Z,5.07
2022-12-08T08:34:05.557Z,4.96
2022-12-08T08:36:32.248Z,4.86
2022-12-08T08:38:58.534Z,5.05
2022-12-08T08:41:24.981Z,5.08
2022-12-08T08:43:51.084Z,5.17
2022-12-08T08:46:17.490Z,5.06
2022-12-08T08:48:44.106Z,5.15
2022-12-08T08:51:12.445Z,5.12
2022-12-08T08:53:38.831Z,5.20
2022-12-08T08:56:13.265Z,5.14
2022-12-08T08:58:40.397Z,5.17
2022-12-08T09:01:07.540Z,5.34
2022-12-08T09:03:34.179Z,5.25
2022-12-08T09:06:00.963Z,5.32
2022-12-08T09:08:27.265Z,5.48
2022-12-08T09:10:54.135Z,5.53
2022-12-08T09:13:20.287Z,5.55
2022-12-08T09:15:46.712Z,5.63
2022-12-08T09:18:12.903Z,5.64
2022-12-08T09:20:39.511Z,5.68
2022-12-08T09:23:05.686Z,5.65
2022-12-08T09:25:32.143Z,5.65
2022-12-08T09:27:58.423Z,5.75
2022-12-08T09:30:24.864Z,5.72
2022-12-08T09:32:52.753Z,5.47
2022-12-08T09:35:19.573Z,5.70
2022-12-08T09:37:45.802Z,5.71
2022-12-08T09:40:18.092Z,5.82
2022-12-08T09:42:49.567Z,5.81
2022-12-08T09:45:17.140Z,5.85
2022-12-08T09:47:54.784Z,5.96
2022-12-08T09:50:36.162Z,5.93
2022-12-08T09:53:11.888Z,5.97
2022-12-08T09:55:41.505Z,5.90
2022-12-08T09:58:46.890Z,5.93
2022-12-08T10:01:14.295Z,5.92
2022-12-08T10:03:41.602Z,5.91
2022-12-08T10:06:22.898Z,5.90
2022-12-08T10:09:01.061Z,5.92
2022-12-08T10:11:58.082Z,5.83
2022-12-08T10:14:41.039Z,5.71
2022-12-08T10:17:23.226Z,5.79
2022-12-08T10:19:54.675Z,5.75
2022-12-08T10:22:23.913Z,5.97
2022-12-08T10:25:17.516Z,6.06
2022-12-08T10:27:47.962Z,6.15
2022-12-08T10:30:16.956Z,6.02
2022-12-08T10:32:49.312Z,5.94
2022-12-08T10:35:18.656Z,5.94
2022-12-08T10:38:01.834Z,5.97
2022-12-08T10:40:36.889Z,6.00
2022-12-08T10:43:15.081Z,5.90
2022-12-08T10:45:44.365Z,5.95
2022-12-08T10:48:32.763Z,5.90
2022-12-08T10:50:59.320Z,6.02
2022-12-08T10:53:28.844Z,6.09
2022-12-08T10:56:00.960Z,6.01
2022-12-08T10:58:36.679Z,5.92
2022-12-08T11:01:20.436Z,5.81
2022-12-08T11:03:53.397Z,5.89
2022-12-08T11:06:28.663Z,6.06
2022-12-08T11:08:58.199Z,6.04
2022-12-08T11:11:46.032Z,6.04
2022-12-08T11:14:19.134Z,6.22
2022-12-08T11:16:45.647Z,6.28
2022-12-08T11:19:17.185Z,6.29
2022-12-08T11:21:43.785Z,6.32
2022-12-08T11:24:21.984Z,6.26
2022-12-08T11:26:52.372Z,6.35
2022-12-08T11:29:19.852Z,6.39
2022-12-08T11:31:51.303Z,6.63
2022-12-08T11:34:44.324Z,6.65
2022-12-08T11:37:19.026Z,6.57
2022-12-08T11:39:50.749Z,6.39
2022-12-08T11:42:22.766Z,6.46
2022-12-08T11:44:56.542Z,6.42
2022-12-08T11:47:35.697Z,6.47
2022-12-08T11:50:27.677Z,6.53
2022-12-08T11:52:56.275Z,6.54
2022-12-08T11:55:25.555Z,6.31
2022-12-08T11:57:54.134Z,6.43
2022-12-08T12:00:20.632Z,6.30
2022-12-08T12:03:00.272Z,6.38
2022-12-08T12:06:18.342Z,6.44
2022-12-08T12:08:56.792Z,6.65
2022-12-08T12:12:01.574Z,6.87
2022-12-08T12:14:43.792Z,6.96
2022-12-08T12:17:55.433Z,7.18
2022-12-08T12:20:24.670Z,7.17
2022-12-08T12:23:07.519Z,7.20
2022-12-08T12:25:35.947Z,7.18
2022-12-08T12:28:06.100Z,7.19
2022-12-08T12:30:56.033Z,7.16
2022-12-08T12:33:23.164Z,7.08
2022-12-08T12:35:49.679Z,7.03
2022-12-08T12:38:43.923Z,7.10
2022-12-08T12:41:13.015Z,7.00
2022-12-08T12:43:40.023Z,6.90
2022-12-08T12:46:24.201Z,7.02
2022-12-08T12:48:51.705Z,7.09
2022-12-08T12:51:39.061Z,7.02
2022-12-08T12:54:32.482Z,7.04
2022-12-08T12:57:04.835Z,7.07
2022-12-08T12:59:51.576Z,7.18
2022-12-08T13:02:27.244Z,7.10
2022-12-08T13:04:56.815Z,7.14
2022-12-08T13:07:26.585Z,7.14
2022-12-08T13:10:02.000Z,7.16
2022-12-08T13:12:28.654Z,7.14
2022-12-08T13:15:03.596Z,7.19
2022-12-08T13:17:32.575Z,7.17
2022-12-08T13:20:03.193Z,7.19
2022-12-08T13:23:03.047Z,7.13
2022-12-08T13:25:39.772Z,7.08
2022-12-08T13:28:14.958Z,7.07
2022-12-08T13:30:49.411Z,7.10
2022-12-08T13:33:24.387Z,7.03
2022-12-08T13:36:04.570Z,6.99
2022-12-08T13:38:35.350Z,7.05
2022-12-08T13:41:08.577Z,6.97
2022-12-08T13:43:55.609Z,6.92
2022-12-08T13:47:31.680Z,6.98
2022-12-08T13:58:34.842Z,6.93
2022-12-08T14:01:04.702Z,6.94
2022-12-08T14:04:04.336Z,7.08
2022-12-08T14:06:34.942Z,6.97
2022-12-08T14:09:10.777Z,6.93
2022-12-08T14:11:40.562Z,6.96
2022-12-08T14:14:14.493Z,6.98
2022-12-08T14:16:55.540Z,7.09
2022-12-08T14:19:30.376Z,6.96
2022-12-08T14:22:16.722Z,7.00
2022-12-08T14:24:48.979Z,6.98
2022-12-08T14:27:19.110Z,7.01
2022-12-08T14:29:57.579Z,6.79
2022-12-08T14:32:28.763Z,6.73
2022-12-08T14:35:06.132Z,6.67
2022-12-08T14:37:38.851Z,6.55
2022-12-08T14:40:22.889Z,6.55
2022-12-08T14:42:53.001Z,6.67
2022-12-08T14:45:20.316Z,6.62
2022-12-08T14:47:48.025Z,6.50
2022-12-08T14:50:33.165Z,6.42
2022-12-08T14:52:59.512Z,6.60
2022-12-08T14:55:28.174Z,6.56
2022-12-08T14:57:54.346Z,6.57
2022-12-08T15:00:21.504Z,6.44
2022-12-08T15:02:47.679Z,6.51
2022-12-08T15:05:18.212Z,6.45
2022-12-08T15:07:48.822Z,6.67
2022-12-08T15:10:16.152Z,6.60
2022-12-08T15:13:19.617Z,6.60
2022-12-08T15:15:54.850Z,6.55
2022-12-08T15:18:38.927Z,6.65
2022-12-08T15:21:08.745Z,6.45
2022-12-08T15:23:46.858Z,6.47
2022-12-08T15:26:25.696Z,6.56
2022-12-08T15:28:52.912Z,6.57
2022-12-08T15:31:20.246Z,6.46
2022-12-08T15:33:46.950Z,6.50
2022-12-08T15:36:14.341Z,6.60
2022-12-08T15:38:42.312Z,6.39
2022-12-08T15:41:14.652Z,6.48
2022-12-08T15:43:42.217Z,6.60
2022-12-08T15:46:08.734Z,6.60
2022-12-08T15:48:37.227Z,6.63
2022-12-08T15:51:04.031Z,6.46
2022-12-08T15:53:30.146Z,6.54
2022-12-08T15:58:54.138Z,6.57
2022-12-08T16:01:22.296Z,6.54
2022-12-08T16:09:26.854Z,6.44
2022-12-08T16:12:11.833Z,6.55
2022-12-08T16:17:26.639Z,6.30
2022-12-08T16:19:53.820Z,6.24
2022-12-08T16:23:03.204Z,6.30
2022-12-08T16:25:19.169Z,6.40
2022-12-08T16:28:03.139Z,6.36
2022-12-08T16:30:32.392Z,6.49
2022-12-08T16:32:59.173Z,6.65
2022-12-08T16:35:25.612Z,6.37
2022-12-08T16:37:52.375Z,6.35
2022-12-08T16:40:18.687Z,6.32
2022-12-08T16:42:47.870Z,6.36
2022-12-08T16:45:22.159Z,6.40
2022-12-08T16:47:58.530Z,6.53
2022-12-08T16:50:34.683Z,6.56
2022-12-08T16:53:04.453Z,6.54
2022-12-08T16:55:31.595Z,6.53
2022-12-08T16:57:58.565Z,6.41
2022-12-08T17:00:27.811Z,6.37
2022-12-08T17:02:55.228Z,6.50
2022-12-08T17:05:23.587Z,6.59
2022-12-08T17:07:52.204Z,6.45
2022-12-08T17:10:22.437Z,6.49
2022-12-08T17:12:53.318Z,6.43
2022-12-08T17:15:22.087Z,6.30
2022-12-08T17:17:48.898Z,6.33
2022-12-08T17:20:20.740Z,6.27
2022-12-08T17:22:50.060Z,6.24
2022-12-08T17:25:16.556Z,6.16
2022-12-08T17:27:43.262Z,6.13
2022-12-08T17:30:15.182Z,6.15
2022-12-08T17:32:45.172Z,6.11
2022-12-08T17:35:13.599Z,6.00
2022-12-08T17:37:44.334Z,6.10
2022-12-08T17:40:11.185Z,6.10
2022-12-08T17:42:38.556Z,6.01
2022-12-08T17:45:06.784Z,6.02
2022-12-08T17:47:34.021Z,6.02
2022-12-08T17:50:03.364Z,6.15
2022-12-08T17:52:30.727Z,5.98
2022-12-08T17:54:57.251Z,6.10
2022-12-08T17:57:24.104Z,6.02
2022-12-08T17:59:51.725Z,6.02
2022-12-08T18:02:19.093Z,6.06
2022-12-08T18:04:48.033Z,6.15
2022-12-08T18:07:14.935Z,6.32
2022-12-08T18:09:41.738Z,6.28
2022-12-08T18:12:08.572Z,6.46
2022-12-08T18:14:35.402Z,6.40
2022-12-08T18:17:02.157Z,6.28
2022-12-08T18:19:31.699Z,6.15
2022-12-08T18:21:59.601Z,6.33
2022-12-08T18:24:26.436Z,6.10
2022-12-08T18:26:54.630Z,6.24
2022-12-08T18:29:22.287Z,6.08
2022-12-08T18:31:49.651Z,6.03
2022-12-08T18:34:18.876Z,6.03
2022-12-08T18:36:46.393Z,6.20
2022-12-08T18:39:21.911Z,6.22
2022-12-08T18:41:49.430Z,5.99
2022-12-08T18:44:15.784Z,6.10
2022-12-08T18:46:42.867Z,6.19
2022-12-08T18:49:18.293Z,6.36
2022-12-08T18:51:45.841Z,6.20
2022-12-08T18:54:13.110Z,6.41
2022-12-08T18:56:39.939Z,6.24
2022-12-08T18:59:10.017Z,6.22
2022-12-08T19:01:38.754Z,6.29
2022-12-08T19:06:55.043Z,6.23
2022-12-08T19:09:22.204Z,6.20
2022-12-08T19:11:49.447Z,6.36
2022-12-08T19:14:16.103Z,6.30
2022-12-08T19:16:42.803Z,6.40
2022-12-08T19:19:09.909Z,6.48
2022-12-08T19:21:42.867Z,6.32
2022-12-08T19:24:12.367Z,6.29
2022-12-08T19:26:38.772Z,6.21
2022-12-08T19:29:05.037Z,6.26
2022-12-08T19:31:31.597Z,6.32
2022-12-08T19:33:57.946Z,6.50
2022-12-08T19:36:25.395Z,6.48
2022-12-08T19:39:10.633Z,6.21
2022-12-08T19:41:56.177Z,6.19
2022-12-08T19:44:25.883Z,6.24
2022-12-08T19:46:52.414Z,6.17
2022-12-08T19:49:18.829Z,6.18
2022-12-08T19:51:45.350Z,6.12
2022-12-08T19:54:11.647Z,6.25
2022-12-08T19:56:38.265Z,6.06
2022-12-08T19:59:04.473Z,6.08
2022-12-08T20:01:31.230Z,6.04
2022-12-08T20:03:57.685Z,6.01
2022-12-08T20:06:26.006Z,6.17
2022-12-08T20:08:53.689Z,6.13
2022-12-08T20:11:20.693Z,6.18
2022-12-08T20:13:47.271Z,6.04
2022-12-08T20:16:15.119Z,6.10
2022-12-08T20:18:43.571Z,6.07
2022-12-08T20:21:11.651Z,5.87
2022-12-08T20:23:37.983Z,5.91
2022-12-08T20:26:11.647Z,5.88
2022-12-08T20:28:38.058Z,5.79
2022-12-08T20:31:05.096Z,5.67
2022-12-08T20:33:31.482Z,5.65
2022-12-08T20:36:00.111Z,5.70
2022-12-08T20:38:28.309Z,5.69
2022-12-08T20:40:59.189Z,5.68
2022-12-08T20:43:26.156Z,5.70
2022-12-08T20:45:52.815Z,5.71
2022-12-08T20:48:19.625Z,5.62
2022-12-08T20:50:50.535Z,5.62
2022-12-08T20:53:17.096Z,5.78
2022-12-08T20:55:43.744Z,5.78
2022-12-08T20:58:10.244Z,5.84
2022-12-08T21:00:37.309Z,5.73
2022-12-08T21:03:03.875Z,5.66
2022-12-08T21:05:31.232Z,5.57
2022-12-08T21:07:58.135Z,5.55
2022-12-08T21:10:24.931Z,5.64
2022-12-08T21:12:51.282Z,5.71
2022-12-08T21:15:18.592Z,5.75
2022-12-08T21:17:45.040Z,5.65
2022-12-08T21:20:12.038Z,5.58
2022-12-08T21:22:39.341Z,5.65
2022-12-08T21:25:07.590Z,5.66
2022-12-08T21:27:34.011Z,5.66
2022-12-08T21:30:00.778Z,5.63
2022-12-08T21:32:30.337Z,5.62
2022-12-08T21:34:57.969Z,5.58
2022-12-08T21:37:24.637Z,5.59
2022-12-08T21:39:51.208Z,5.63
2022-12-08T21:42:36.497Z,5.56
2022-12-08T21:45:04.160Z,5.55
2022-12-08T21:47:30.733Z,5.52
2022-12-08T21:49:57.735Z,5.65
2022-12-08T21:52:26.648Z,5.65
2022-12-08T21:54:53.321Z,5.60
2022-12-08T21:57:19.972Z,5.56
2022-12-08T21:59:46.835Z,5.50
2022-12-08T22:02:18.313Z,5.49
2022-12-08T22:04:50.030Z,5.60
2022-12-08T22:07:16.721Z,5.59
2022-12-08T22:09:43.633Z,5.62
2022-12-08T22:12:13.561Z,5.54
2022-12-08T22:14:40.144Z,5.49
2022-12-08T22:17:07.333Z,5.52
2022-12-08T22:19:34.801Z,5.45
2022-12-08T22:22:01.503Z,5.43
2022-12-08T22:24:31.294Z,5.48
2022-12-08T22:26:57.632Z,5.48
2022-12-08T22:29:24.176Z,5.42
2022-12-08T22:31:50.716Z,5.68
2022-12-08T22:34:17.444Z,5.53
2022-12-08T22:36:44.537Z,5.70
2022-12-08T22:39:11.865Z,5.55
2022-12-08T22:41:38.335Z,5.86
2022-12-08T22:44:06.508Z,5.65
2022-12-08T22:46:33.370Z,5.62
2022-12-08T22:49:00.539Z,5.42
2022-12-08T22:51:26.821Z,5.37
2022-12-08T22:53:53.291Z,5.34
2022-12-08T22:56:19.973Z,5.53
2022-12-08T22:58:47.302Z,5.48
2022-12-08T23:01:26.122Z,5.63
2022-12-08T23:03:52.974Z,5.93
2022-12-08T23:06:19.878Z,5.68
2022-12-08T23:08:46.610Z,5.50
2022-12-08T23:11:13.588Z,5.32
2022-12-08T23:13:41.750Z,5.82
2022-12-08T23:16:09.636Z,6.13
2022-12-08T23:18:39.866Z,6.14
2022-12-08T23:21:09.136Z,6.05
2022-12-08T23:23:35.611Z,5.78
2022-12-08T23:26:02.273Z,5.54
2022-12-08T23:28:28.886Z,5.45
2022-12-08T23:30:57.870Z,5.38
2022-12-08T23:33:24.704Z,5.32
2022-12-08T23:35:57.526Z,5.26
2022-12-08T23:38:24.857Z,5.24
2022-12-08T23:40:51.837Z,5.10
2022-12-08T23:43:21.212Z,4.96
2022-12-08T23:45:47.911Z,4.87
2022-12-08T23:48:15.044Z,4.98
2022-12-08T23:50:43.891Z,4.99
2022-12-08T23:53:10.504Z,5.06
2022-12-08T23:55:37.133Z,5.04
2022-12-08T23:58:03.726Z,5.22
